createdAt,value
2023-04-22T00:00:06.858Z,99628.94
2023-04-22T00:02:34.092Z,99627.91
2023-04-22T00:05:01.737Z,99652.03
2023-04-22T00:07:28.783Z,99652.47
2023-04-22T00:09:55.593Z,99662.56
2023-04-22T00:12:22.838Z,99625.19
2023-04-22T00:14:49.605Z,99657.06
2023-04-22T00:17:16.351Z,99664.94
2023-04-22T00:19:44.160Z,99588.59
2023-04-22T00:22:11.373Z,99664.31
2023-04-22T00:24:38.182Z,99659.53
2023-04-22T00:27:05.041Z,99660.41
2023-04-22T00:29:31.767Z,99612.78
2023-04-22T00:31:58.609Z,99660.41
2023-04-22T00:34:25.499Z,99642.78
2023-04-22T00:36:52.214Z,99637.13
2023-04-22T00:39:18.931Z,99663.94
2023-04-22T00:41:45.965Z,99655.47
2023-04-22T00:44:12.859Z,99636.41
2023-04-22T00:46:40.054Z,99665.38
2023-04-22T00:49:07.417Z,99577.00
2023-04-22T00:51:34.278Z,99584.03
2023-04-22T00:54:04.844Z,99656.91
2023-04-22T00:56:31.953Z,99670.28
2023-04-22T00:58:58.798Z,99656.28
2023-04-22T01:01:25.878Z,99661.91
2023-04-22T01:03:53.350Z,99643.25
2023-04-22T01:06:23.085Z,99629.81
2023-04-22T01:08:49.882Z,99626.69
2023-04-22T01:11:16.687Z,99674.34
2023-04-22T01:13:43.641Z,99672.72
2023-04-22T01:16:10.441Z,99635.41
2023-04-22T01:18:37.210Z,99654.78
2023-04-22T01:21:04.334Z,99682.22
2023-04-22T01:23:31.072Z,99663.50
2023-04-22T01:25:57.822Z,99667.13
2023-04-22T01:28:24.791Z,99664.63
2023-04-22T01:30:51.814Z,99640.19
2023-04-22T01:33:18.605Z,99654.78
2023-04-22T01:35:46.044Z,99649.72
2023-04-22T01:38:13.085Z,99650.53
2023-04-22T01:40:39.818Z,99668.75
2023-04-22T01:43:06.800Z,99635.94
2023-04-22T01:45:33.978Z,99668.22
2023-04-22T01:48:01.028Z,99666.09
2023-04-22T01:50:28.065Z,99670.00
2023-04-22T01:52:54.788Z,99645.66
2023-04-22T01:55:21.512Z,99687.00
2023-04-22T01:57:48.345Z,99671.72
2023-04-22T02:00:15.417Z,99641.06
2023-04-22T02:02:42.283Z,99684.97
2023-04-22T02:05:09.659Z,99678.34
2023-04-22T02:07:36.863Z,99668.00
2023-04-22T02:10:05.245Z,99646.66
2023-04-22T02:12:32.740Z,99676.59
2023-04-22T02:14:59.523Z,99676.19
2023-04-22T02:17:27.322Z,99645.63
2023-04-22T02:19:54.376Z,99688.63
2023-04-22T02:22:21.785Z,99643.25
2023-04-22T02:24:48.618Z,99679.81
2023-04-22T02:27:15.407Z,99678.38
2023-04-22T02:29:42.716Z,99690.69
2023-04-22T02:32:09.546Z,99684.81
2023-04-22T02:34:36.889Z,99687.28
2023-04-22T02:37:03.623Z,99682.50
2023-04-22T02:39:30.370Z,99691.03
2023-04-22T02:41:57.172Z,99686.56
2023-04-22T02:44:24.110Z,99684.59
2023-04-22T02:46:51.315Z,99649.13
2023-04-22T02:49:18.264Z,99697.25
2023-04-22T02:51:45.628Z,99702.22
2023-04-22T02:54:12.442Z,99651.75
2023-04-22T02:56:39.278Z,99693.69
2023-04-22T02:59:06.014Z,99697.66
2023-04-22T03:01:32.758Z,99705.53
2023-04-22T03:04:00.202Z,99696.63
2023-04-22T03:06:27.407Z,99681.00
2023-04-22T03:08:54.132Z,99707.69
2023-04-22T03:11:21.181Z,99705.53
2023-04-22T03:13:47.932Z,99716.50
2023-04-22T03:16:14.722Z,99710.09
2023-04-22T03:18:41.831Z,99720.44
2023-04-22T03:21:08.621Z,99722.97
2023-04-22T03:23:35.754Z,99716.84
2023-04-22T03:26:02.724Z,99715.47
2023-04-22T03:28:30.579Z,99725.00
2023-04-22T03:30:57.331Z,99718.59
2023-04-22T03:33:24.225Z,99704.25
2023-04-22T03:35:51.150Z,99724.81
2023-04-22T03:38:17.982Z,99730.69
2023-04-22T03:40:44.809Z,99721.84
2023-04-22T03:43:12.056Z,99701.63
2023-04-22T03:45:38.869Z,99715.13
2023-04-22T03:48:06.107Z,99733.50
2023-04-22T03:50:33.597Z,99720.03
2023-04-22T03:53:00.361Z,99728.75
2023-04-22T03:55:27.246Z,99723.53
2023-04-22T03:57:54.173Z,99713.56
2023-04-22T04:00:20.918Z,99715.00
2023-04-22T04:02:48.020Z,99730.34
2023-04-22T04:05:15.175Z,99735.72
2023-04-22T04:07:42.704Z,99705.56
2023-04-22T04:10:10.775Z,99733.75
2023-04-22T04:12:37.638Z,99728.16
2023-04-22T04:15:04.918Z,99698.94
2023-04-22T04:17:31.786Z,99721.63
2023-04-22T04:19:58.587Z,99721.63
2023-04-22T04:22:25.735Z,99746.09
2023-04-22T04:24:52.624Z,99716.41
2023-04-22T04:27:19.422Z,99737.78
2023-04-22T04:29:46.176Z,99746.59
2023-04-22T04:32:12.977Z,99737.91
2023-04-22T04:34:39.755Z,99736.78
2023-04-22T04:37:06.715Z,99737.09
2023-04-22T04:39:33.799Z,99696.44
2023-04-22T04:42:00.590Z,99748.72
2023-04-22T04:44:27.545Z,99746.13
2023-04-22T04:46:58.147Z,99733.03
2023-04-22T04:49:24.946Z,99751.44
2023-04-22T04:51:51.686Z,99748.91
2023-04-22T04:54:18.653Z,99700.25
2023-04-22T04:56:45.451Z,99731.78
2023-04-22T04:59:12.258Z,99744.22
2023-04-22T05:01:39.138Z,99740.53
2023-04-22T05:04:06.332Z,99732.00
2023-04-22T05:06:33.842Z,99751.97
2023-04-22T05:09:00.709Z,99757.31
2023-04-22T05:11:27.441Z,99694.03
2023-04-22T05:13:54.188Z,99763.09
2023-04-22T05:16:21.070Z,99759.75
2023-04-22T05:18:47.878Z,99749.06
2023-04-22T05:21:16.110Z,99734.13
2023-04-22T05:23:43.441Z,99757.69
2023-04-22T05:26:10.175Z,99770.31
2023-04-22T05:28:36.983Z,99775.91
2023-04-22T05:31:03.756Z,99782.09
2023-04-22T05:33:30.530Z,99779.63
2023-04-22T05:35:57.471Z,99784.06
2023-04-22T05:38:24.261Z,99794.66
2023-04-22T05:40:51.138Z,99796.63
2023-04-22T05:43:17.866Z,99720.16
2023-04-22T05:45:44.994Z,99799.91
2023-04-22T05:48:11.823Z,99803.88
2023-04-22T05:50:38.599Z,99789.94
2023-04-22T05:53:05.389Z,99767.94
2023-04-22T05:55:32.212Z,99805.06
2023-04-22T05:57:58.972Z,99768.56
2023-04-22T06:00:25.961Z,99809.03
2023-04-22T06:02:52.818Z,99808.41
2023-04-22T06:05:19.800Z,99824.19
2023-04-22T06:07:46.710Z,99824.69
2023-04-22T06:10:13.447Z,99815.47
2023-04-22T06:12:40.191Z,99828.53
2023-04-22T06:15:07.594Z,99828.53
2023-04-22T06:17:34.355Z,99811.44
2023-04-22T06:20:01.093Z,99809.03
2023-04-22T06:22:27.960Z,99836.41
2023-04-22T06:24:54.721Z,99848.56
2023-04-22T06:27:21.499Z,99852.13
2023-04-22T06:29:48.404Z,99854.88
2023-04-22T06:32:15.182Z,99857.56
2023-04-22T06:34:41.992Z,99863.69
2023-04-22T06:37:09.338Z,99861.94
2023-04-22T06:39:36.265Z,99855.28
2023-04-22T06:42:03.148Z,99872.94
2023-04-22T06:44:30.060Z,99856.00
2023-04-22T06:46:58.295Z,99885.53
2023-04-22T06:49:25.332Z,99890.81
2023-04-22T06:51:52.398Z,99883.88
2023-04-22T06:54:19.130Z,99856.19
2023-04-22T06:56:45.946Z,99867.94
2023-04-22T06:59:12.778Z,99845.72
2023-04-22T07:01:39.536Z,99894.22
2023-04-22T07:04:06.360Z,99885.75
2023-04-22T07:06:33.338Z,99909.56
2023-04-22T07:09:00.468Z,99909.31
2023-04-22T07:11:27.938Z,99863.03
2023-04-22T07:13:54.889Z,99896.28
2023-04-22T07:16:21.750Z,99891.06
2023-04-22T07:18:48.586Z,99892.94
2023-04-22T07:21:15.626Z,99931.69
2023-04-22T07:23:42.365Z,99926.63
2023-04-22T07:26:09.132Z,99929.50
2023-04-22T07:28:36.182Z,99905.28
2023-04-22T07:31:03.176Z,99920.13
2023-04-22T07:33:30.014Z,99940.00
2023-04-22T07:35:56.866Z,99946.31
2023-04-22T07:38:23.584Z,99938.78
2023-04-22T07:40:50.296Z,99931.03
2023-04-22T07:43:18.241Z,99936.91
2023-04-22T07:45:45.419Z,99937.94
2023-04-22T07:48:12.201Z,99945.78
2023-04-22T07:50:39.051Z,99949.25
2023-04-22T07:53:06.252Z,99924.56
2023-04-22T07:55:33.298Z,99913.44
2023-04-22T07:58:06.698Z,99946.47
2023-04-22T08:00:34.945Z,99943.81
2023-04-22T08:03:02.559Z,99949.31
2023-04-22T08:05:29.580Z,99950.66
2023-04-22T08:07:56.351Z,99953.75
2023-04-22T08:10:23.172Z,99939.09
2023-04-22T08:12:50.065Z,99959.66
2023-04-22T08:15:16.938Z,99957.66
2023-04-22T08:17:44.343Z,99957.09
2023-04-22T08:20:11.368Z,99959.09
2023-04-22T08:22:38.932Z,99968.41
2023-04-22T08:25:06.858Z,99959.00
2023-04-22T08:27:33.809Z,99969.53
2023-04-22T08:30:00.702Z,99941.72
2023-04-22T08:32:27.642Z,99952.03
2023-04-22T08:35:03.601Z,99968.84
2023-04-22T08:37:31.581Z,99927.91
2023-04-22T08:39:58.500Z,99977.28
2023-04-22T08:42:25.253Z,99955.84
2023-04-22T08:44:54.142Z,99972.22
2023-04-22T08:47:21.479Z,99978.00
2023-04-22T08:49:48.319Z,99967.78
2023-04-22T08:52:15.627Z,99988.00
2023-04-22T08:54:42.821Z,99982.59
2023-04-22T08:57:11.100Z,99986.19
2023-04-22T08:59:39.025Z,99988.69
2023-04-22T09:02:06.893Z,99970.47
2023-04-22T09:04:33.823Z,99998.44
2023-04-22T09:07:00.946Z,99996.41
2023-04-22T09:09:28.028Z,99961.38
2023-04-22T09:11:54.830Z,100000.66
2023-04-22T09:14:21.647Z,100002.75
2023-04-22T09:16:48.740Z,100001.19
2023-04-22T09:19:15.954Z,99984.16
2023-04-22T09:21:42.993Z,99994.19
2023-04-22T09:24:10.772Z,99939.97
2023-04-22T09:26:41.576Z,99996.41
2023-04-22T09:29:09.647Z,100014.09
2023-04-22T09:31:38.228Z,100002.44
2023-04-22T09:34:05.059Z,100008.31
2023-04-22T09:36:37.518Z,99996.22
2023-04-22T09:39:07.188Z,100007.94
2023-04-22T09:41:35.197Z,100007.94
2023-04-22T09:44:03.342Z,99994.84
2023-04-22T09:46:31.581Z,100014.38
2023-04-22T09:48:59.947Z,100022.81
2023-04-22T09:51:27.666Z,99989.63
2023-04-22T09:54:05.359Z,100011.19
2023-04-22T09:56:46.799Z,100008.47
2023-04-22T09:59:13.838Z,100005.69
2023-04-22T10:01:41.409Z,100012.28
2023-04-22T10:04:15.157Z,99974.94
2023-04-22T10:06:42.530Z,100016.56
2023-04-22T10:09:09.779Z,100024.28
2023-04-22T10:11:36.775Z,99980.53
2023-04-22T10:14:03.636Z,100023.59
2023-04-22T10:16:32.376Z,100013.22
2023-04-22T10:18:59.832Z,100005.75
2023-04-22T10:21:26.914Z,100018.78
2023-04-22T10:23:53.656Z,100001.84
2023-04-22T10:26:39.464Z,100012.34
2023-04-22T10:29:08.024Z,100000.19
2023-04-22T10:31:35.037Z,100006.81
2023-04-22T10:34:15.365Z,99999.72
2023-04-22T10:37:11.611Z,100025.13
2023-04-22T10:39:40.723Z,100027.03
2023-04-22T10:42:11.665Z,100020.06
2023-04-22T10:44:54.559Z,100025.94
2023-04-22T10:47:34.731Z,100021.25
2023-04-22T10:50:27.129Z,100032.84
2023-04-22T10:52:58.722Z,100027.28
2023-04-22T10:55:26.298Z,100018.28
2023-04-22T10:57:53.649Z,100042.78
2023-04-22T11:00:52.457Z,100071.50
2023-04-22T11:03:25.847Z,100061.06
2023-04-22T11:06:19.398Z,100061.50
2023-04-22T11:08:47.468Z,100052.94
2023-04-22T11:11:14.420Z,100040.78
2023-04-22T11:13:42.595Z,100037.69
2023-04-22T11:16:09.526Z,100063.59
2023-04-22T11:18:36.433Z,100026.00
2023-04-22T11:21:05.293Z,100054.06
2023-04-22T11:23:32.205Z,100065.72
2023-04-22T11:26:05.789Z,100066.88
2023-04-22T11:28:32.951Z,100069.53
2023-04-22T11:31:04.416Z,100053.94
2023-04-22T11:33:33.090Z,100072.19
2023-04-22T11:35:59.816Z,100044.78
2023-04-22T11:38:26.657Z,100077.19
2023-04-22T11:40:55.107Z,100045.78
2023-04-22T11:43:21.847Z,100047.34
2023-04-22T11:45:48.641Z,100082.00
2023-04-22T11:48:16.846Z,100089.25
2023-04-22T11:50:48.155Z,100083.78
2023-04-22T11:53:19.402Z,100092.47
2023-04-22T11:55:48.094Z,99979.88
2023-04-22T11:58:16.791Z,100080.88
2023-04-22T12:00:45.794Z,100049.00
2023-04-22T12:03:15.210Z,100087.31
2023-04-22T12:05:51.740Z,100094.56
2023-04-22T12:08:20.045Z,100079.66
2023-04-22T12:10:47.735Z,100085.69
2023-04-22T12:13:47.525Z,100096.44
2023-04-22T12:16:18.440Z,100065.94
2023-04-22T12:18:48.327Z,100086.47
2023-04-22T12:21:15.900Z,100086.25
2023-04-22T12:23:48.157Z,100088.34
2023-04-22T12:26:15.696Z,100095.06
2023-04-22T12:28:42.773Z,100067.66
2023-04-22T12:31:09.767Z,100102.88
2023-04-22T12:33:37.003Z,100101.88
2023-04-22T12:36:04.249Z,100113.84
2023-04-22T12:38:31.081Z,100102.00
2023-04-22T12:40:58.218Z,100100.38
2023-04-22T12:43:25.357Z,100105.94
2023-04-22T12:45:52.154Z,100116.63
2023-04-22T12:48:18.878Z,100078.97
2023-04-22T12:50:45.598Z,100126.97
2023-04-22T12:53:12.428Z,100117.22
2023-04-22T12:55:39.227Z,100128.03
2023-04-22T12:58:06.111Z,100118.25
2023-04-22T13:00:33.631Z,100116.91
2023-04-22T13:03:00.767Z,100121.44
2023-04-22T13:05:27.787Z,100121.78
2023-04-22T13:10:24.316Z,100096.75
2023-04-22T13:12:51.182Z,100112.06
2023-04-22T13:15:20.529Z,100121.66
2023-04-22T13:17:49.163Z,100126.16
2023-04-22T13:20:17.782Z,100119.81
2023-04-22T13:22:44.670Z,100112.47
2023-04-22T13:25:11.439Z,100123.28
2023-04-22T13:27:38.252Z,100076.84
2023-04-22T13:30:07.643Z,100116.16
2023-04-22T13:32:34.510Z,100109.59
2023-04-22T13:35:03.051Z,100117.56
2023-04-22T13:37:30.176Z,100136.09
2023-04-22T13:39:56.925Z,100131.84
2023-04-22T13:42:24.780Z,100110.78
2023-04-22T13:44:51.838Z,100134.78
2023-04-22T13:47:18.696Z,100123.28
2023-04-22T13:49:45.510Z,100138.44
2023-04-22T13:52:12.591Z,100114.28
2023-04-22T13:54:39.661Z,100132.72
2023-04-22T13:57:06.463Z,100127.69
2023-04-22T13:59:35.874Z,100101.56
2023-04-22T14:02:02.466Z,100135.44
2023-04-22T14:04:29.698Z,100103.22
2023-04-22T14:06:56.900Z,100099.34
2023-04-22T14:09:23.701Z,100136.19
2023-04-22T14:11:52.898Z,100138.78
2023-04-22T14:14:19.673Z,100142.09
2023-04-22T14:16:46.436Z,100111.41
2023-04-22T14:19:14.686Z,100135.88
2023-04-22T14:21:41.484Z,100157.72
2023-04-22T14:24:08.311Z,100091.69
2023-04-22T14:26:35.025Z,100140.81
2023-04-22T14:29:01.953Z,100147.31
2023-04-22T14:31:28.748Z,100146.59
2023-04-22T14:33:55.887Z,100147.19
2023-04-22T14:36:22.716Z,100109.75
2023-04-22T14:38:49.501Z,100149.66
2023-04-22T14:41:16.277Z,100149.44
2023-04-22T14:43:43.119Z,100153.56
2023-04-22T14:46:10.648Z,100153.47
2023-04-22T14:48:39.417Z,100104.78
2023-04-22T14:51:06.527Z,100119.28
2023-04-22T14:53:33.949Z,100137.38
2023-04-22T14:56:00.752Z,100153.31
2023-04-22T14:58:31.719Z,100147.53
2023-04-22T15:00:59.840Z,100117.63
2023-04-22T15:03:26.828Z,100145.66
2023-04-22T15:05:54.928Z,100136.16
2023-04-22T15:08:21.799Z,100143.69
2023-04-22T15:10:48.562Z,100149.88
2023-04-22T15:13:15.525Z,100150.69
2023-04-22T15:15:42.301Z,100148.06
2023-04-22T15:18:09.161Z,100130.44
2023-04-22T15:20:36.106Z,100156.22
2023-04-22T15:23:03.131Z,100100.44
2023-04-22T15:25:29.858Z,100157.84
2023-04-22T15:27:57.202Z,100126.91
2023-04-22T15:30:24.087Z,100123.50
2023-04-22T15:32:51.018Z,100153.38
2023-04-22T15:35:18.117Z,100163.28
2023-04-22T15:37:45.216Z,100121.09
2023-04-22T15:40:12.102Z,100114.00
2023-04-22T15:42:38.939Z,100067.41
2023-04-22T15:45:06.712Z,100097.78
2023-04-22T15:47:33.657Z,100118.22
2023-04-22T15:50:06.873Z,100143.75
2023-04-22T15:52:33.801Z,100119.53
2023-04-22T15:55:03.723Z,100160.13
2023-04-22T15:57:35.191Z,100151.31
2023-04-22T16:00:11.926Z,100150.38
2023-04-22T16:02:39.973Z,100155.00
2023-04-22T16:05:07.248Z,100165.84
2023-04-22T16:07:34.144Z,100167.72
2023-04-22T16:10:01.193Z,100157.81
2023-04-22T16:12:28.117Z,100152.00
2023-04-22T16:14:54.912Z,100154.03
2023-04-22T16:17:22.075Z,100162.94
2023-04-22T16:19:48.952Z,100154.47
2023-04-22T16:22:15.796Z,100160.13
2023-04-22T16:24:44.109Z,100147.88
2023-04-22T16:27:16.597Z,100144.56
2023-04-22T16:29:44.210Z,100131.31
2023-04-22T16:32:11.651Z,100157.97
2023-04-22T16:34:38.747Z,100153.50
2023-04-22T16:37:06.267Z,100153.72
2023-04-22T16:39:33.262Z,100160.06
2023-04-22T16:42:00.083Z,100122.47
2023-04-22T16:44:27.054Z,100142.22
2023-04-22T16:46:54.218Z,100125.81
2023-04-22T16:49:21.234Z,100120.72
2023-04-22T16:51:48.700Z,100173.66
2023-04-22T16:54:15.459Z,100183.69
2023-04-22T16:56:42.232Z,100184.50
2023-04-22T16:59:09.047Z,100171.88
2023-04-22T17:01:36.296Z,100178.59
2023-04-22T17:04:03.339Z,100146.63
2023-04-22T17:06:30.351Z,100176.50
2023-04-22T17:08:57.187Z,100189.47
2023-04-22T17:11:24.113Z,100057.88
2023-04-22T17:13:51.463Z,100170.31
2023-04-22T17:16:18.578Z,100140.75
2023-04-22T17:18:47.095Z,100149.75
2023-04-22T17:21:14.149Z,100185.50
2023-04-22T17:23:41.009Z,100186.19
2023-04-22T17:26:07.835Z,100187.38
2023-04-22T17:28:35.232Z,100186.31
2023-04-22T17:31:02.614Z,100188.78
2023-04-22T17:33:30.300Z,100194.31
2023-04-22T17:35:57.141Z,100179.63
2023-04-22T17:38:23.908Z,100204.34
2023-04-22T17:40:50.627Z,100200.34
2023-04-22T17:43:17.580Z,100198.69
2023-04-22T17:45:44.353Z,100211.16
2023-04-22T17:48:11.098Z,100198.88
2023-04-22T17:50:37.981Z,100191.31
2023-04-22T17:53:05.738Z,100199.44
2023-04-22T17:55:35.323Z,100176.75
2023-04-22T17:58:02.551Z,100187.16
2023-04-22T18:00:29.494Z,100171.09
2023-04-22T18:02:56.543Z,100194.50
2023-04-22T18:05:23.623Z,100205.69
2023-04-22T18:07:50.412Z,100193.72
2023-04-22T18:10:17.173Z,100196.69
2023-04-22T18:12:44.115Z,100195.16
2023-04-22T18:15:10.987Z,100184.59
2023-04-22T18:17:37.817Z,100197.72
2023-04-22T18:20:16.798Z,100194.25
2023-04-22T18:22:48.974Z,100189.78
2023-04-22T18:25:16.219Z,100180.69
2023-04-22T18:27:43.044Z,100198.78
2023-04-22T18:30:10.124Z,100211.44
2023-04-22T18:32:37.466Z,100203.16
2023-04-22T18:35:05.924Z,100204.31
2023-04-22T18:37:34.844Z,100181.81
2023-04-22T18:40:02.163Z,100198.06
2023-04-22T18:42:29.152Z,100206.41
2023-04-22T18:44:55.988Z,100189.31
2023-04-22T18:47:23.031Z,100213.91
2023-04-22T18:49:49.975Z,100220.22
2023-04-22T18:52:17.392Z,100183.75
2023-04-22T18:54:44.405Z,100166.00
2023-04-22T18:57:11.299Z,100218.41
2023-04-22T18:59:38.539Z,100231.19
2023-04-22T19:02:06.109Z,100224.72
2023-04-22T19:04:32.951Z,100227.91
2023-04-22T19:06:59.790Z,100226.38
2023-04-22T19:09:26.646Z,100207.47
2023-04-22T19:11:53.471Z,100223.09
2023-04-22T19:14:20.623Z,100221.41
2023-04-22T19:16:47.485Z,100178.16
2023-04-22T19:19:14.225Z,100217.44
2023-04-22T19:21:41.318Z,100202.00
2023-04-22T19:24:08.324Z,100223.44
2023-04-22T19:26:35.139Z,100196.91
2023-04-22T19:29:01.925Z,100212.16
2023-04-22T19:31:29.333Z,100220.94
2023-04-22T19:33:56.179Z,100218.94
2023-04-22T19:36:22.942Z,100220.31
2023-04-22T19:38:49.976Z,100232.06
2023-04-22T19:41:16.801Z,100238.38
2023-04-22T19:43:43.736Z,100235.75
2023-04-22T19:46:10.584Z,100241.41
2023-04-22T19:48:37.759Z,100235.91
2023-04-22T19:51:05.732Z,100232.25
2023-04-22T19:53:32.655Z,100243.88
2023-04-22T19:55:59.505Z,100248.69
2023-04-22T19:58:28.299Z,100250.34
2023-04-22T20:00:55.554Z,100245.56
2023-04-22T20:03:22.930Z,100247.88
2023-04-22T20:05:50.406Z,100249.53
2023-04-22T20:08:21.419Z,100240.41
2023-04-22T20:10:49.612Z,100229.63
2023-04-22T20:13:17.249Z,100238.75
2023-04-22T20:15:44.912Z,100265.31
2023-04-22T20:18:12.132Z,100266.63
2023-04-22T20:20:40.621Z,100256.19
2023-04-22T20:23:10.744Z,100266.81
2023-04-22T20:25:42.622Z,100252.72
2023-04-22T20:28:10.882Z,100287.38
2023-04-22T20:30:37.857Z,100266.97
2023-04-22T20:33:04.767Z,100273.97
2023-04-22T20:35:32.235Z,100278.91
2023-04-22T20:38:00.187Z,100295.84
2023-04-22T20:40:26.963Z,100293.53
2023-04-22T20:42:54.042Z,100286.41
2023-04-22T20:45:22.021Z,100299.53
2023-04-22T20:47:48.855Z,100308.34
2023-04-22T20:50:16.278Z,100280.94
2023-04-22T20:52:43.454Z,100297.69
2023-04-22T20:55:10.374Z,100316.63
2023-04-22T20:57:37.821Z,100311.31
2023-04-22T21:00:07.336Z,100319.13
2023-04-22T21:02:34.178Z,100320.78
2023-04-22T21:05:01.129Z,100319.13
2023-04-22T21:07:30.786Z,100332.56
2023-04-22T21:09:57.725Z,100320.94
2023-04-22T21:12:25.023Z,100320.44
2023-04-22T21:14:52.004Z,100329.06
2023-04-22T21:17:20.152Z,100282.41
2023-04-22T21:19:50.092Z,100327.56
2023-04-22T21:22:23.413Z,100320.59
2023-04-22T21:24:51.079Z,100336.56
2023-04-22T21:27:22.054Z,100342.22
2023-04-22T21:29:49.880Z,100342.22
2023-04-22T21:32:17.203Z,100330.06
2023-04-22T21:34:44.841Z,100336.88
2023-04-22T21:37:11.964Z,100344.00
2023-04-22T21:39:38.888Z,100344.34
2023-04-22T21:42:08.998Z,100333.56
2023-04-22T21:44:36.785Z,100327.41
2023-04-22T21:47:04.084Z,100282.72
2023-04-22T21:49:31.207Z,100332.72
2023-04-22T21:51:58.441Z,100319.13
2023-04-22T21:54:25.241Z,100305.81
2023-04-22T21:56:52.205Z,100308.81
2023-04-22T21:59:18.971Z,100326.56
2023-04-22T22:01:46.093Z,100323.75
2023-04-22T22:04:15.733Z,100306.47
2023-04-22T22:06:43.042Z,100310.81
2023-04-22T22:09:09.832Z,100279.09
2023-04-22T22:11:36.732Z,100317.13
2023-04-22T22:14:03.552Z,100315.47
2023-04-22T22:16:31.209Z,100227.09
2023-04-22T22:18:58.567Z,100303.84
2023-04-22T22:21:25.421Z,100315.28
2023-04-22T22:23:52.203Z,100322.09
2023-04-22T22:26:19.474Z,100305.34
2023-04-22T22:28:46.550Z,100320.25
2023-04-22T22:31:13.348Z,100319.78
2023-04-22T22:33:40.481Z,100319.28
2023-04-22T22:36:08.693Z,100324.41
2023-04-22T22:38:35.426Z,100328.41
2023-04-22T22:41:02.605Z,100283.44
2023-04-22T22:43:29.435Z,100326.25
2023-04-22T22:45:56.406Z,100333.06
2023-04-22T22:48:23.260Z,100321.75
2023-04-22T22:50:50.109Z,100296.03
2023-04-22T22:53:16.859Z,100301.16
2023-04-22T22:55:43.748Z,100281.75
2023-04-22T22:58:10.567Z,100302.84
2023-04-22T23:00:37.338Z,100302.50
2023-04-22T23:03:04.901Z,100281.91
2023-04-22T23:05:31.985Z,100311.78
2023-04-22T23:07:58.784Z,100312.63
2023-04-22T23:10:25.649Z,100315.44
2023-04-22T23:12:52.361Z,100311.78
2023-04-22T23:15:19.090Z,100313.44
2023-04-22T23:17:46.265Z,100309.47
2023-04-22T23:20:14.200Z,100309.31
2023-04-22T23:22:41.012Z,100314.78
2023-04-22T23:25:08.956Z,100322.75
2023-04-22T23:27:36.231Z,100307.31
2023-04-22T23:30:04.718Z,100310.13
2023-04-22T23:32:32.582Z,100294.50
2023-04-22T23:35:00.030Z,100273.25
2023-04-22T23:37:27.016Z,100306.47
2023-04-22T23:39:54.145Z,100312.94
2023-04-22T23:42:20.894Z,100317.28
2023-04-22T23:44:47.630Z,100321.25
2023-04-22T23:47:14.842Z,100311.13
2023-04-22T23:49:41.767Z,100315.13
2023-04-22T23:52:08.568Z,100317.41
2023-04-22T23:54:35.708Z,100318.25
2023-04-22T23:57:02.865Z,100318.59
2023-04-22T23:59:29.893Z,100324.53
